Time;durP1;ratioP1;P1;durP2;ratioP2;P2;SDS_P1;SDS_P2;PMS_P1;PMS_P2;Temp;Humidity;BMP_temperature;BMP_pressure;BME280_temperature;BME280_humidity;BME280_pressure;Samples;Min_cycle;Max_cycle;Signal;HPM_P1;HPM_P2
2024/04/11 00:00:01;;;;;;;0.10;0.10;;;;;;;;;;5418763;26;20267;-85
2024/04/11 00:02:29;;;;;;;0.20;0.20;;;;;;;;;;5419166;26;20003;-85
2024/04/11 00:04:56;;;;;;;0.10;0.10;;;;;;;;;;5419156;26;20003;-85
2024/04/11 00:07:23;;;;;;;0.10;0.10;;;;;;;;;;5419176;26;20340;-85
2024/04/11 00:09:51;;;;;;;0.10;0.10;;;;;;;;;;5418958;26;20000;-85
2024/04/11 00:12:19;;;;;;;0.10;0.10;;;;;;;;;;5417595;26;20007;-85
2024/04/11 00:14:46;;;;;;;0.20;0.20;;;;;;;;;;5387475;26;20486;-84
2024/04/11 00:17:14;;;;;;;0.10;0.10;;;;;;;;;;5419157;26;19995;-85
2024/04/11 00:19:41;;;;;;;0.20;0.20;;;;;;;;;;5419367;26;20014;-85
2024/04/11 00:22:11;;;;;;;0.10;0.10;;;;;;;;;;5418886;26;20454;-85
2024/04/11 00:24:38;;;;;;;0.10;0.10;;;;;;;;;;5418852;26;19999;-85
2024/04/11 00:27:06;;;;;;;0.10;0.10;;;;;;;;;;5418674;26;19995;-86
2024/04/11 00:29:33;;;;;;;0.28;0.28;;;;;;;;;;5415580;26;20015;-85
2024/04/11 00:32:02;;;;;;;0.10;0.10;;;;;;;;;;5387404;26;20036;-85
2024/04/11 00:34:32;;;;;;;0.10;0.10;;;;;;;;;;5417417;26;20016;-86
2024/04/11 00:36:59;;;;;;;0.10;0.10;;;;;;;;;;5387808;26;20028;-86
2024/04/11 00:39:26;;;;;;;0.10;0.10;;;;;;;;;;5418717;26;19996;-86
2024/04/11 00:41:54;;;;;;;0.10;0.10;;;;;;;;;;5416236;26;20463;-86
2024/04/11 00:44:21;;;;;;;0.10;0.10;;;;;;;;;;5416739;26;20020;-86
2024/04/11 00:46:51;;;;;;;0.10;0.10;;;;;;;;;;5418634;26;19999;-86
2024/04/11 00:49:19;;;;;;;0.10;0.10;;;;;;;;;;5416442;26;20024;-86
2024/04/11 00:51:47;;;;;;;0.10;0.10;;;;;;;;;;5386481;26;20016;-86
2024/04/11 00:54:17;;;;;;;0.10;0.10;;;;;;;;;;5416561;26;20020;-86
2024/04/11 00:56:44;;;;;;;0.10;0.10;;;;;;;;;;5416533;26;19996;-87
2024/04/11 00:59:13;;;;;;;0.10;0.10;;;;;;;;;;5416630;26;20024;-86
2024/04/11 01:01:40;;;;;;;0.10;0.10;;;;;;;;;;5416214;26;20015;-85
2024/04/11 01:04:07;;;;;;;0.10;0.10;;;;;;;;;;5416849;26;20015;-85
2024/04/11 01:07:06;;;;;;;0.10;0.10;;;;;;;;;;5416154;26;20040;-85
2024/04/11 01:09:33;;;;;;;0.10;0.10;;;;;;;;;;5416872;26;20003;-86
2024/04/11 01:12:01;;;;;;;0.10;0.10;;;;;;;;;;5417833;26;20019;-85
2024/04/11 01:14:28;;;;;;;0.10;0.10;;;;;;;;;;5418173;26;20010;-85
2024/04/11 01:16:56;;;;;;;0.10;0.10;;;;;;;;;;5416581;26;20020;-85
2024/04/11 01:19:26;;;;;;;0.10;0.10;;;;;;;;;;5415953;26;20438;-85
2024/04/11 01:21:55;;;;;;;0.20;0.20;;;;;;;;;;5416072;26;20025;-86
2024/04/11 01:24:22;;;;;;;0.10;0.10;;;;;;;;;;5416053;26;20031;-86
2024/04/11 01:26:50;;;;;;;0.10;0.10;;;;;;;;;;5417908;26;20366;-86
2024/04/11 01:29:17;;;;;;;0.10;0.10;;;;;;;;;;5417761;26;20000;-85
2024/04/11 01:31:44;;;;;;;0.10;0.10;;;;;;;;;;5418091;26;20006;-86
2024/04/11 01:34:11;;;;;;;0.20;0.20;;;;;;;;;;5416094;26;20015;-85
2024/04/11 01:36:39;;;;;;;0.10;0.10;;;;;;;;;;5417820;26;19995;-85
2024/04/11 01:39:09;;;;;;;0.10;0.10;;;;;;;;;;5417746;26;20427;-86
2024/04/11 01:41:37;;;;;;;0.13;0.13;;;;;;;;;;5415858;26;20039;-86
2024/04/11 01:44:05;;;;;;;0.10;0.10;;;;;;;;;;5415556;26;20028;-85
2024/04/11 01:46:32;;;;;;;0.15;0.15;;;;;;;;;;5417336;26;20445;-85
2024/04/11 01:49:00;;;;;;;0.10;0.10;;;;;;;;;;5418253;26;19996;-85
2024/04/11 01:51:28;;;;;;;0.10;0.10;;;;;;;;;;5418064;26;20020;-84
2024/04/11 01:53:55;;;;;;;0.10;0.10;;;;;;;;;;5417676;26;20010;-85
2024/04/11 01:56:25;;;;;;;0.10;0.10;;;;;;;;;;5418073;26;20000;-85
2024/04/11 01:58:53;;;;;;;0.10;0.10;;;;;;;;;;5416983;26;20453;-84
2024/04/11 02:01:20;;;;;;;0.10;0.10;;;;;;;;;;5415473;26;20460;-86
2024/04/11 02:03:48;;;;;;;0.10;0.10;;;;;;;;;;5416457;26;20019;-86
2024/04/11 02:06:15;;;;;;;0.10;0.10;;;;;;;;;;5417630;26;20010;-86
2024/04/11 02:08:42;;;;;;;0.10;0.10;;;;;;;;;;5417448;26;20006;-85
2024/04/11 02:11:11;;;;;;;3.10;0.30;;;;;;;;;;5415534;26;20016;-86
2024/04/11 02:13:38;;;;;;;0.10;0.10;;;;;;;;;;5416256;26;20011;-84
2024/04/11 02:16:06;;;;;;;0.10;0.10;;;;;;;;;;5415986;26;20491;-85
2024/04/11 02:18:33;;;;;;;0.10;0.10;;;;;;;;;;5415112;26;20028;-86
2024/04/11 02:21:00;;;;;;;0.10;0.10;;;;;;;;;;5417119;26;20446;-85
2024/04/11 02:23:28;;;;;;;0.10;0.10;;;;;;;;;;5416646;26;19996;-85
2024/04/11 02:25:57;;;;;;;0.10;0.10;;;;;;;;;;5417133;26;20446;-85
2024/04/11 02:28:24;;;;;;;0.10;0.10;;;;;;;;;;5415869;26;20024;-85
2024/04/11 02:30:53;;;;;;;0.10;0.10;;;;;;;;;;5418122;26;20003;-85
2024/04/11 02:33:29;;;;;;;0.10;0.10;;;;;;;;;;5416161;26;20025;-85
2024/04/11 02:35:56;;;;;;;0.10;0.10;;;;;;;;;;5416105;26;20016;-85
2024/04/11 02:38:25;;;;;;;0.10;0.10;;;;;;;;;;5417070;26;19995;-86
2024/04/11 02:40:53;;;;;;;0.10;0.10;;;;;;;;;;5415772;26;19999;-86
2024/04/11 02:43:20;;;;;;;0.10;0.10;;;;;;;;;;5417715;26;20356;-85
2024/04/11 02:45:53;;;;;;;0.10;0.10;;;;;;;;;;5418042;26;20003;-85
2024/04/11 02:48:20;;;;;;;0.10;0.10;;;;;;;;;;5418909;26;20000;-86
2024/04/11 02:50:49;;;;;;;0.13;0.13;;;;;;;;;;5418177;26;20313;-85
2024/04/11 02:53:17;;;;;;;0.10;0.10;;;;;;;;;;5386876;26;20028;-82
2024/04/11 02:55:44;;;;;;;0.10;0.10;;;;;;;;;;5418503;26;19995;-85
2024/04/11 02:58:11;;;;;;;0.10;0.10;;;;;;;;;;5419248;26;20443;-82
2024/04/11 03:00:40;;;;;;;0.20;0.20;;;;;;;;;;5418219;26;20007;-84
2024/04/11 03:03:08;;;;;;;0.10;0.10;;;;;;;;;;5416236;26;20443;-83
2024/04/11 03:05:36;;;;;;;0.10;0.10;;;;;;;;;;5416599;26;20010;-83
2024/04/11 03:08:06;;;;;;;0.10;0.10;;;;;;;;;;5416708;26;20031;-83
2024/04/11 03:10:33;;;;;;;0.10;0.10;;;;;;;;;;5388105;26;20025;-83
2024/04/11 03:13:01;;;;;;;0.10;0.10;;;;;;;;;;5418215;26;20439;-83
2024/04/11 03:15:30;;;;;;;0.10;0.10;;;;;;;;;;5416741;26;20024;-83
2024/04/11 03:17:58;;;;;;;0.10;0.10;;;;;;;;;;5416365;26;20015;-83
2024/04/11 03:20:25;;;;;;;0.15;0.15;;;;;;;;;;5417401;26;20015;-83
2024/04/11 03:22:52;;;;;;;0.10;0.10;;;;;;;;;;5416767;26;20464;-91
2024/04/11 03:25:19;;;;;;;0.10;0.10;;;;;;;;;;5417508;26;20000;-84
2024/04/11 03:27:47;;;;;;;0.20;0.20;;;;;;;;;;5415033;26;20343;-84
2024/04/11 03:30:14;;;;;;;0.10;0.10;;;;;;;;;;5417018;26;20014;-83
2024/04/11 03:32:41;;;;;;;0.10;0.10;;;;;;;;;;5415237;26;20023;-82
2024/04/11 03:35:08;;;;;;;0.10;0.10;;;;;;;;;;5416819;26;19995;-83
2024/04/11 03:37:35;;;;;;;0.10;0.10;;;;;;;;;;5386201;26;20351;-83
2024/04/11 03:40:04;;;;;;;0.10;0.10;;;;;;;;;;5416605;26;20007;-83
2024/04/11 03:42:32;;;;;;;0.05;0.05;;;;;;;;;;5416778;26;20430;-83
2024/04/11 03:45:10;;;;;;;0.20;0.20;;;;;;;;;;5416046;26;20419;-85
2024/04/11 03:47:40;;;;;;;0.10;0.10;;;;;;;;;;5414813;26;20024;-84
2024/04/11 03:50:08;;;;;;;0.10;0.10;;;;;;;;;;5414202;26;20028;-84
2024/04/11 03:52:35;;;;;;;0.10;0.10;;;;;;;;;;5415575;26;20016;-83
2024/04/11 03:55:03;;;;;;;0.10;0.10;;;;;;;;;;5415537;26;20424;-83
2024/04/11 03:57:30;;;;;;;0.10;0.10;;;;;;;;;;5415898;26;20011;-83
2024/04/11 03:59:57;;;;;;;0.10;0.10;;;;;;;;;;5415764;26;20010;-84
2024/04/11 04:02:24;;;;;;;0.10;0.10;;;;;;;;;;5413349;26;20350;-83
2024/04/11 04:04:52;;;;;;;0.40;0.40;;;;;;;;;;5415184;26;20016;-85
2024/04/11 04:07:19;;;;;;;0.20;0.20;;;;;;;;;;5419100;26;20023;-84
2024/04/11 04:09:48;;;;;;;0.20;0.20;;;;;;;;;;5419151;26;19996;-84
2024/04/11 04:12:16;;;;;;;0.10;0.10;;;;;;;;;;5417333;26;20024;-84
2024/04/11 04:14:45;;;;;;;0.10;0.10;;;;;;;;;;5418722;26;20423;-84
2024/04/11 04:17:12;;;;;;;0.10;0.10;;;;;;;;;;5417620;26;20016;-80
2024/04/11 04:19:39;;;;;;;0.10;0.10;;;;;;;;;;5418701;26;20010;-83
2024/04/11 04:22:08;;;;;;;0.10;0.10;;;;;;;;;;5416421;26;20015;-84
2024/04/11 04:24:35;;;;;;;0.10;0.10;;;;;;;;;;5417116;26;20027;-83
2024/04/11 04:27:04;;;;;;;0.10;0.10;;;;;;;;;;5418923;26;20351;-84
2024/04/11 04:29:31;;;;;;;0.10;0.10;;;;;;;;;;5387930;26;20019;-85
2024/04/11 04:31:58;;;;;;;0.10;0.10;;;;;;;;;;5416538;26;20019;-84
2024/04/11 04:34:25;;;;;;;0.10;0.10;;;;;;;;;;5418966;26;20000;-85
2024/04/11 04:36:55;;;;;;;0.10;0.10;;;;;;;;;;5418774;26;20010;-84
2024/04/11 04:39:30;;;;;;;0.10;0.10;;;;;;;;;;5417484;26;20010;-83
2024/04/11 04:41:57;;;;;;;0.10;0.10;;;;;;;;;;5417145;26;20016;-84
2024/04/11 04:44:28;;;;;;;0.73;0.73;;;;;;;;;;5416592;26;20019;-84
2024/04/11 04:46:55;;;;;;;0.10;0.10;;;;;;;;;;5387761;26;20016;-84
2024/04/11 04:49:23;;;;;;;0.10;0.10;;;;;;;;;;5418398;26;20006;-83
2024/04/11 04:51:51;;;;;;;0.10;0.10;;;;;;;;;;5416378;26;20016;-84
2024/04/11 04:54:19;;;;;;;0.10;0.10;;;;;;;;;;5418314;26;20024;-84
2024/04/11 04:56:46;;;;;;;0.10;0.10;;;;;;;;;;5418195;26;19996;-84
2024/04/11 04:59:14;;;;;;;0.10;0.10;;;;;;;;;;5416245;26;20468;-84
2024/04/11 05:01:41;;;;;;;0.10;0.10;;;;;;;;;;5416116;26;20020;-84
2024/04/11 05:04:13;;;;;;;0.10;0.10;;;;;;;;;;5415778;26;20015;-84
2024/04/11 05:06:42;;;;;;;0.10;0.10;;;;;;;;;;5416921;26;20031;-84
2024/04/11 05:09:10;;;;;;;0.10;0.10;;;;;;;;;;5416744;26;20016;-83
2024/04/11 05:11:37;;;;;;;0.10;0.10;;;;;;;;;;5416034;26;20011;-83
2024/04/11 05:14:07;;;;;;;0.10;0.10;;;;;;;;;;5417791;26;20010;-83
2024/04/11 05:16:34;;;;;;;0.10;0.10;;;;;;;;;;5386378;26;20451;-85
2024/04/11 05:19:04;;;;;;;0.10;0.10;;;;;;;;;;5416732;26;20028;-83
2024/04/11 05:21:32;;;;;;;0.10;0.10;;;;;;;;;;5416506;26;20028;-84
2024/04/11 05:24:00;;;;;;;0.10;0.10;;;;;;;;;;5387150;26;20020;-83
2024/04/11 05:26:29;;;;;;;0.38;0.17;;;;;;;;;;5418413;26;20000;-83
2024/04/11 05:28:57;;;;;;;0.10;0.10;;;;;;;;;;5418012;26;19999;-83
2024/04/11 05:31:27;;;;;;;0.10;0.10;;;;;;;;;;5416527;26;20010;-83
2024/04/11 05:33:59;;;;;;;0.10;0.10;;;;;;;;;;5417883;26;20352;-82
2024/04/11 05:36:28;;;;;;;0.10;0.10;;;;;;;;;;5417913;26;20011;-82
2024/04/11 05:38:56;;;;;;;0.10;0.10;;;;;;;;;;5387270;26;20024;-83
2024/04/11 05:41:24;;;;;;;0.10;0.10;;;;;;;;;;5415549;26;20016;-82
2024/04/11 05:43:51;;;;;;;0.10;0.10;;;;;;;;;;5416396;26;20024;-84
2024/04/11 05:46:19;;;;;;;0.10;0.10;;;;;;;;;;5417482;26;20003;-86
2024/04/11 05:48:47;;;;;;;0.10;0.10;;;;;;;;;;5417965;26;20002;-86
2024/04/11 05:51:15;;;;;;;0.10;0.10;;;;;;;;;;5416242;26;20023;-84
2024/04/11 05:53:42;;;;;;;0.10;0.10;;;;;;;;;;5417763;26;20000;-84
2024/04/11 05:56:10;;;;;;;0.10;0.10;;;;;;;;;;5417517;26;20336;-84
2024/04/11 05:58:40;;;;;;;0.10;0.10;;;;;;;;;;5417839;26;20006;-84
2024/04/11 06:01:09;;;;;;;0.20;0.20;;;;;;;;;;5417237;26;19995;-83
2024/04/11 06:03:40;;;;;;;0.10;0.10;;;;;;;;;;5415426;26;20024;-84
2024/04/11 06:06:10;;;;;;;0.10;0.10;;;;;;;;;;5417433;26;19999;-90
2024/04/11 06:08:37;;;;;;;0.20;0.20;;;;;;;;;;5416074;26;20386;-85
2024/04/11 06:11:06;;;;;;;0.10;0.10;;;;;;;;;;5412173;26;20432;-85
2024/04/11 06:13:33;;;;;;;0.10;0.10;;;;;;;;;;5413879;26;20024;-85
2024/04/11 06:16:01;;;;;;;0.10;0.10;;;;;;;;;;5417421;26;20367;-86
2024/04/11 06:18:28;;;;;;;0.10;0.10;;;;;;;;;;5411664;26;20029;-84
2024/04/11 06:20:56;;;;;;;0.10;0.10;;;;;;;;;;5379635;26;20024;-84
2024/04/11 06:23:25;;;;;;;0.10;0.10;;;;;;;;;;5350922;26;20028;-85
2024/04/11 06:25:52;;;;;;;0.20;0.20;;;;;;;;;;5351112;26;20028;-85
2024/04/11 06:28:19;;;;;;;0.20;0.20;;;;;;;;;;5379168;26;20152;-85
2024/04/11 06:30:47;;;;;;;0.10;0.10;;;;;;;;;;5380443;26;20005;-85
2024/04/11 06:33:16;;;;;;;0.10;0.10;;;;;;;;;;5379469;26;20024;-84
2024/04/11 06:35:46;;;;;;;0.17;0.17;;;;;;;;;;5351297;26;20028;-85
2024/04/11 06:38:16;;;;;;;0.10;0.10;;;;;;;;;;5381184;26;20000;-85
2024/04/11 06:40:48;;;;;;;0.20;0.20;;;;;;;;;;5378234;26;20020;-85
2024/04/11 06:43:19;;;;;;;0.10;0.10;;;;;;;;;;5379462;26;20337;-89
2024/04/11 06:45:46;;;;;;;0.20;0.20;;;;;;;;;;5379527;26;20001;-84
2024/04/11 06:48:13;;;;;;;0.10;0.10;;;;;;;;;;5378906;26;20020;-84
2024/04/11 06:50:40;;;;;;;0.10;0.10;;;;;;;;;;5378684;26;20022;-82
2024/04/11 06:53:09;;;;;;;0.10;0.10;;;;;;;;;;5381288;26;20007;-81
2024/04/11 06:55:36;;;;;;;0.10;0.10;;;;;;;;;;5381700;26;20000;-84
2024/04/11 06:58:03;;;;;;;0.20;0.20;;;;;;;;;;5381256;26;19996;-84
2024/04/11 07:00:36;;;;;;;0.10;0.10;;;;;;;;;;5380975;26;20020;-83
2024/04/11 07:03:17;;;;;;;0.10;0.10;;;;;;;;;;5380890;26;19996;-82
2024/04/11 07:05:51;;;;;;;0.10;0.10;;;;;;;;;;5381834;26;20000;-82
2024/04/11 07:08:29;;;;;;;0.20;0.20;;;;;;;;;;5379553;26;20029;-83
2024/04/11 07:11:27;;;;;;;0.10;0.10;;;;;;;;;;5379546;26;20025;-85
2024/04/11 07:13:55;;;;;;;0.10;0.10;;;;;;;;;;5355902;26;20359;-84
2024/04/11 07:16:40;;;;;;;0.10;0.10;;;;;;;;;;5378681;26;20016;-84
2024/04/11 07:19:08;;;;;;;0.10;0.10;;;;;;;;;;5379260;26;20475;-85
2024/04/11 07:21:38;;;;;;;0.10;0.10;;;;;;;;;;5350608;26;20025;-81
2024/04/11 07:24:06;;;;;;;0.15;0.15;;;;;;;;;;5351041;26;20000;-80
2024/04/11 07:26:33;;;;;;;0.10;0.10;;;;;;;;;;5378784;26;20297;-81
2024/04/11 07:29:01;;;;;;;0.20;0.20;;;;;;;;;;5380829;26;20011;-81
2024/04/11 07:31:29;;;;;;;0.10;0.10;;;;;;;;;;5378651;26;20016;-81
2024/04/11 07:33:58;;;;;;;0.13;0.13;;;;;;;;;;5378826;26;20020;-82
2024/04/11 07:36:26;;;;;;;0.10;0.10;;;;;;;;;;5350233;26;20156;-81
2024/04/11 07:38:54;;;;;;;0.10;0.10;;;;;;;;;;5381726;26;20011;-81
2024/04/11 07:41:23;;;;;;;0.20;0.20;;;;;;;;;;5383611;26;20005;-83
2024/04/11 07:43:52;;;;;;;0.10;0.10;;;;;;;;;;5382623;26;20024;-84
2024/04/11 07:46:22;;;;;;;0.10;0.10;;;;;;;;;;5353247;26;20017;-82
2024/04/11 07:48:51;;;;;;;0.10;0.10;;;;;;;;;;5353606;26;20413;-82
2024/04/11 07:51:19;;;;;;;0.10;0.10;;;;;;;;;;5382565;26;20472;-82
2024/04/11 07:53:47;;;;;;;0.10;0.10;;;;;;;;;;5381095;26;20035;-82
2024/04/11 07:56:17;;;;;;;0.28;0.28;;;;;;;;;;5382453;26;20018;-83
2024/04/11 07:58:45;;;;;;;0.10;0.10;;;;;;;;;;5408517;26;20365;-83
2024/04/11 08:01:14;;;;;;;0.10;0.10;;;;;;;;;;5416854;26;20019;-83
2024/04/11 08:03:41;;;;;;;0.10;0.10;;;;;;;;;;5417705;26;20004;-83
2024/04/11 08:06:10;;;;;;;0.10;0.10;;;;;;;;;;5417802;26;20027;-83
2024/04/11 08:08:37;;;;;;;0.35;0.35;;;;;;;;;;5418011;26;19995;-82
2024/04/11 08:11:06;;;;;;;0.17;0.17;;;;;;;;;;5416544;26;20028;-83
2024/04/11 08:13:34;;;;;;;0.10;0.10;;;;;;;;;;5416899;26;20033;-82
2024/04/11 08:16:01;;;;;;;0.20;0.20;;;;;;;;;;5416643;26;20032;-83
2024/04/11 08:18:28;;;;;;;0.10;0.10;;;;;;;;;;5416548;26;20024;-85
2024/04/11 08:20:56;;;;;;;0.10;0.10;;;;;;;;;;5418374;26;20001;-82
2024/04/11 08:23:25;;;;;;;0.10;0.10;;;;;;;;;;5418007;26;20004;-82
2024/04/11 08:25:53;;;;;;;0.10;0.10;;;;;;;;;;5416562;26;20036;-82
2024/04/11 08:28:21;;;;;;;0.10;0.10;;;;;;;;;;5418294;26;19995;-84
2024/04/11 08:30:48;;;;;;;0.10;0.10;;;;;;;;;;5418605;26;20015;-83
2024/04/11 08:33:16;;;;;;;0.20;0.20;;;;;;;;;;5418147;26;20011;-81
2024/04/11 08:35:44;;;;;;;0.20;0.20;;;;;;;;;;5418593;26;20019;-82
2024/04/11 08:38:12;;;;;;;0.10;0.10;;;;;;;;;;5417721;26;20020;-81
2024/04/11 08:40:44;;;;;;;0.10;0.10;;;;;;;;;;5416555;26;20014;-81
2024/04/11 08:43:12;;;;;;;0.17;0.17;;;;;;;;;;5419321;26;20006;-82
2024/04/11 08:45:40;;;;;;;0.20;0.20;;;;;;;;;;5416794;26;20257;-83
2024/04/11 08:48:07;;;;;;;0.10;0.10;;;;;;;;;;5418154;26;19995;-82
2024/04/11 08:50:35;;;;;;;0.10;0.10;;;;;;;;;;5415310;26;20031;-81
2024/04/11 08:53:02;;;;;;;0.30;0.30;;;;;;;;;;5416296;26;20019;-82
2024/04/11 08:55:30;;;;;;;0.10;0.10;;;;;;;;;;5387087;26;20019;-82
2024/04/11 08:57:59;;;;;;;0.10;0.10;;;;;;;;;;5418163;26;20000;-82
2024/04/11 09:00:27;;;;;;;0.30;0.30;;;;;;;;;;5387379;26;20015;-82
2024/04/11 09:02:55;;;;;;;0.10;0.10;;;;;;;;;;5416402;26;20019;-82
2024/04/11 09:05:23;;;;;;;0.25;0.25;;;;;;;;;;5416643;26;20016;-82
2024/04/11 09:07:51;;;;;;;0.10;0.10;;;;;;;;;;5418200;26;20000;-82
2024/04/11 09:10:19;;;;;;;0.13;0.13;;;;;;;;;;5415678;26;20019;-82
2024/04/11 09:12:46;;;;;;;0.10;0.10;;;;;;;;;;5416285;26;20014;-82
2024/04/11 09:15:18;;;;;;;0.10;0.10;;;;;;;;;;5416059;26;20039;-82
2024/04/11 09:17:45;;;;;;;0.10;0.10;;;;;;;;;;5417717;26;20363;-82
2024/04/11 09:20:15;;;;;;;0.10;0.10;;;;;;;;;;5405756;26;20025;-82
2024/04/11 09:22:51;;;;;;;0.10;0.10;;;;;;;;;;5379995;26;20029;-82
2024/04/11 09:25:19;;;;;;;0.10;0.10;;;;;;;;;;5382450;26;20352;-82
2024/04/11 09:27:50;;;;;;;0.10;0.10;;;;;;;;;;5379699;26;20028;-81
2024/04/11 09:30:21;;;;;;;0.20;0.20;;;;;;;;;;5382206;26;20021;-82
2024/04/11 09:32:49;;;;;;;0.10;0.10;;;;;;;;;;5351841;26;20283;-82
2024/04/11 09:35:17;;;;;;;0.10;0.10;;;;;;;;;;5382359;26;20011;-82
2024/04/11 09:37:45;;;;;;;0.10;0.10;;;;;;;;;;5380395;26;20021;-82
2024/04/11 09:40:19;;;;;;;0.10;0.10;;;;;;;;;;5381548;26;20004;-83
2024/04/11 09:42:47;;;;;;;0.10;0.10;;;;;;;;;;5380835;26;20020;-82
2024/04/11 09:45:18;;;;;;;0.40;0.40;;;;;;;;;;5379197;26;20036;-82
2024/04/11 09:47:48;;;;;;;0.10;0.10;;;;;;;;;;5380108;26;20000;-82
2024/04/11 09:50:16;;;;;;;0.10;0.10;;;;;;;;;;5380910;26;20011;-82
2024/04/11 09:52:45;;;;;;;0.10;0.10;;;;;;;;;;5379641;26;20358;-83
2024/04/11 09:55:15;;;;;;;0.10;0.10;;;;;;;;;;5380218;26;20043;-83
2024/04/11 09:57:44;;;;;;;0.50;0.50;;;;;;;;;;5380626;26;19996;-82
2024/04/11 10:03:04;;;;;;;0.25;0.25;;;;;;;;;;5363409;26;20016;-83
2024/04/11 10:05:45;;;;;;;0.25;0.25;;;;;;;;;;5382122;26;20368;-83
2024/04/11 10:08:27;;;;;;;0.33;0.27;;;;;;;;;;5381817;26;20007;-84
2024/04/11 10:10:58;;;;;;;0.10;0.10;;;;;;;;;;5380136;26;20591;-83
2024/04/11 10:13:25;;;;;;;0.10;0.10;;;;;;;;;;5379733;26;20024;-83
2024/04/11 10:16:05;;;;;;;0.10;0.10;;;;;;;;;;5381208;26;20032;-83
2024/04/11 10:18:45;;;;;;;0.10;0.10;;;;;;;;;;5380036;26;20028;-83
2024/04/11 10:21:17;;;;;;;0.20;0.20;;;;;;;;;;5380343;26;20355;-84
2024/04/11 10:23:48;;;;;;;0.40;0.40;;;;;;;;;;5382010;26;20011;-84
2024/04/11 10:26:17;;;;;;;0.17;0.17;;;;;;;;;;5381946;26;20000;-84
2024/04/11 10:28:51;;;;;;;0.10;0.10;;;;;;;;;;5381629;26;20000;-85
2024/04/11 10:31:22;;;;;;;0.10;0.10;;;;;;;;;;5381280;26;20372;-84
2024/04/11 10:34:25;;;;;;;0.10;0.10;;;;;;;;;;5380266;26;20016;-84
2024/04/11 10:36:42;;;;;;;0.10;0.10;;;;;;;;;;5381377;26;20000;-84
2024/04/11 10:39:10;;;;;;;0.17;0.15;;;;;;;;;;5381323;26;19996;-85
2024/04/11 10:41:37;;;;;;;0.10;0.10;;;;;;;;;;5379882;26;20020;-85
2024/04/11 10:44:06;;;;;;;0.10;0.10;;;;;;;;;;5380035;26;20017;-85
2024/04/11 10:46:34;;;;;;;0.10;0.10;;;;;;;;;;5351571;26;20000;-86
2024/04/11 10:49:28;;;;;;;0.10;0.10;;;;;;;;;;5381417;26;19996;-86
2024/04/11 10:51:50;;;;;;;0.20;0.20;;;;;;;;;;5378887;26;20025;-85
2024/04/11 10:54:18;;;;;;;0.10;0.10;;;;;;;;;;5379806;26;20011;-85
2024/04/11 10:56:46;;;;;;;0.10;0.10;;;;;;;;;;5379068;26;20460;-83
2024/04/11 10:59:18;;;;;;;0.10;0.10;;;;;;;;;;5380172;26;20028;-82
2024/04/11 11:01:50;;;;;;;0.20;0.20;;;;;;;;;;5379395;26;20016;-83
2024/04/11 11:04:20;;;;;;;0.10;0.10;;;;;;;;;;5379664;26;20024;-83
2024/04/11 11:06:51;;;;;;;0.10;0.10;;;;;;;;;;5378577;26;20037;-84
2024/04/11 11:09:18;;;;;;;0.10;0.10;;;;;;;;;;5351575;26;20017;-82
2024/04/11 11:11:46;;;;;;;0.10;0.10;;;;;;;;;;5378954;26;20448;-80
2024/04/11 11:14:17;;;;;;;0.30;0.30;;;;;;;;;;5349816;26;20021;-81
2024/04/11 11:16:44;;;;;;;0.10;0.10;;;;;;;;;;5381174;26;19996;-82
2024/04/11 11:19:12;;;;;;;0.10;0.10;;;;;;;;;;5378703;26;20349;-82
2024/04/11 11:21:42;;;;;;;0.10;0.10;;;;;;;;;;5378867;26;20017;-82
2024/04/11 11:24:14;;;;;;;0.10;0.10;;;;;;;;;;5379628;26;20016;-85
2024/04/11 11:26:43;;;;;;;0.10;0.10;;;;;;;;;;5351279;26;20021;-83
2024/04/11 11:29:11;;;;;;;0.10;0.10;;;;;;;;;;5379332;26;20020;-84
2024/04/11 11:31:40;;;;;;;0.10;0.10;;;;;;;;;;5381038;26;20015;-82
2024/04/11 11:34:11;;;;;;;0.10;0.10;;;;;;;;;;5379338;26;20025;-83
2024/04/11 11:36:40;;;;;;;0.10;0.10;;;;;;;;;;5380870;26;20016;-83
2024/04/11 11:39:17;;;;;;;0.20;0.20;;;;;;;;;;5350865;26;20024;-83
2024/04/11 11:41:48;;;;;;;0.20;0.20;;;;;;;;;;5352663;26;20024;-83
2024/04/11 11:44:18;;;;;;;0.10;0.10;;;;;;;;;;5380180;26;20012;-82
2024/04/11 11:47:05;;;;;;;0.10;0.10;;;;;;;;;;5378415;26;20012;-83
2024/04/11 11:49:37;;;;;;;0.10;0.10;;;;;;;;;;5379056;26;20000;-82
2024/04/11 11:52:05;;;;;;;0.10;0.10;;;;;;;;;;5350301;26;20029;-83
2024/04/11 11:54:35;;;;;;;0.10;0.10;;;;;;;;;;5349979;26;20341;-82
2024/04/11 11:57:18;;;;;;;0.10;0.10;;;;;;;;;;5380488;26;20012;-82
2024/04/11 11:59:46;;;;;;;0.10;0.10;;;;;;;;;;5379856;26;20015;-83
2024/04/11 12:02:14;;;;;;;0.10;0.10;;;;;;;;;;5379919;26;20011;-82
2024/04/11 12:04:44;;;;;;;0.10;0.10;;;;;;;;;;5349970;26;20469;-86
2024/04/11 12:07:18;;;;;;;0.10;0.10;;;;;;;;;;5378440;26;20444;-82
2024/04/11 12:09:56;;;;;;;0.10;0.10;;;;;;;;;;5350566;26;20016;-83
2024/04/11 12:12:23;;;;;;;0.10;0.10;;;;;;;;;;5378586;26;20030;-86
2024/04/11 12:14:54;;;;;;;0.10;0.10;;;;;;;;;;5377995;26;20020;-86
2024/04/11 12:17:26;;;;;;;0.10;0.10;;;;;;;;;;5350487;26;20020;-84
2024/04/11 12:19:53;;;;;;;0.15;0.15;;;;;;;;;;5378281;26;20021;-86
2024/04/11 12:22:21;;;;;;;0.20;0.20;;;;;;;;;;5379804;26;20011;-85
2024/04/11 12:24:50;;;;;;;0.10;0.10;;;;;;;;;;5377820;26;20025;-83
2024/04/11 12:27:23;;;;;;;0.20;0.20;;;;;;;;;;5353605;26;20341;-87
2024/04/11 12:29:50;;;;;;;0.10;0.10;;;;;;;;;;5354243;26;20028;-84
2024/04/11 12:32:18;;;;;;;0.10;0.10;;;;;;;;;;5352903;26;20362;-85
2024/04/11 12:34:45;;;;;;;0.10;0.10;;;;;;;;;;5381198;26;20029;-85
2024/04/11 12:37:24;;;;;;;0.10;0.10;;;;;;;;;;5381447;26;20016;-86
2024/04/11 12:39:54;;;;;;;0.10;0.10;;;;;;;;;;5355636;26;20443;-85
2024/04/11 12:42:23;;;;;;;0.10;0.10;;;;;;;;;;5381098;26;20020;-85
2024/04/11 12:44:55;;;;;;;0.10;0.10;;;;;;;;;;5383030;26;20071;-85
2024/04/11 12:47:48;;;;;;;0.10;0.10;;;;;;;;;;5380677;26;20016;-85
2024/04/11 12:50:21;;;;;;;0.10;0.10;;;;;;;;;;5381507;26;20426;-84
2024/04/11 12:52:49;;;;;;;0.20;0.20;;;;;;;;;;5353692;26;20028;-84
2024/04/11 12:55:24;;;;;;;0.10;0.10;;;;;;;;;;5382403;26;19996;-84
2024/04/11 12:58:01;;;;;;;0.10;0.10;;;;;;;;;;5381538;26;20548;-86
2024/04/11 13:00:34;;;;;;;0.10;0.10;;;;;;;;;;5354635;26;20020;-85
2024/04/11 13:03:15;;;;;;;0.25;0.25;;;;;;;;;;5353517;26;20020;-85
2024/04/11 13:05:52;;;;;;;0.10;0.10;;;;;;;;;;5355884;26;20016;-84
2024/04/11 13:08:20;;;;;;;0.10;0.10;;;;;;;;;;5383060;26;20447;-83
2024/04/11 13:10:53;;;;;;;0.10;0.10;;;;;;;;;;5383267;26;20451;-85
2024/04/11 13:13:23;;;;;;;0.35;0.35;;;;;;;;;;5381089;26;20015;-84
2024/04/11 13:15:54;;;;;;;0.10;0.10;;;;;;;;;;5380234;26;20025;-86
2024/04/11 13:18:28;;;;;;;0.10;0.10;;;;;;;;;;5383098;26;20004;-85
2024/04/11 13:20:58;;;;;;;0.10;0.10;;;;;;;;;;5353829;26;20000;-85
2024/04/11 13:23:26;;;;;;;0.10;0.10;;;;;;;;;;5352222;26;20017;-86
2024/04/11 13:25:57;;;;;;;0.10;0.10;;;;;;;;;;5381136;26;20025;-85
2024/04/11 13:28:31;;;;;;;0.10;0.10;;;;;;;;;;5352990;26;20016;-85
2024/04/11 13:30:58;;;;;;;0.10;0.10;;;;;;;;;;5353491;26;20016;-85
2024/04/11 13:33:30;;;;;;;0.10;0.10;;;;;;;;;;5382531;26;20024;-84
2024/04/11 13:36:04;;;;;;;;;;;;;;;;;;5381028;26;20025;-85
2024/04/11 13:38:37;;;;;;;0.10;0.10;;;;;;;;;;5380618;26;20274;-85
2024/04/11 13:43:44;;;;;;;0.10;0.10;;;;;;;;;;5381097;26;20032;-83
2024/04/11 13:46:11;;;;;;;0.10;0.10;;;;;;;;;;5382121;26;20358;-84
2024/04/11 13:48:48;;;;;;;0.20;0.20;;;;;;;;;;5382272;26;19996;-84
2024/04/11 13:51:16;;;;;;;0.10;0.10;;;;;;;;;;5380038;26;20025;-84
2024/04/11 13:53:44;;;;;;;0.10;0.10;;;;;;;;;;5352406;26;20025;-83
2024/04/11 13:56:15;;;;;;;0.10;0.10;;;;;;;;;;5379962;26;20020;-83
2024/04/11 13:58:48;;;;;;;0.10;0.10;;;;;;;;;;5352533;26;20029;-84
2024/04/11 14:01:31;;;;;;;0.10;0.10;;;;;;;;;;5380160;26;20032;-83
2024/04/11 14:04:04;;;;;;;0.20;0.20;;;;;;;;;;5353256;26;20007;-85
2024/04/11 14:06:57;;;;;;;0.10;0.10;;;;;;;;;;5382140;26;20454;-83
2024/04/11 14:09:36;;;;;;;0.10;0.10;;;;;;;;;;5380692;26;20355;-82
2024/04/11 14:12:03;;;;;;;0.10;0.10;;;;;;;;;;5380192;26;20020;-84
2024/04/11 14:14:34;;;;;;;0.10;0.10;;;;;;;;;;5382067;26;20011;-83
2024/04/11 14:17:06;;;;;;;0.10;0.10;;;;;;;;;;5380197;26;20025;-82
2024/04/11 14:19:36;;;;;;;0.10;0.10;;;;;;;;;;5382396;26;20000;-83
2024/04/11 14:24:58;;;;;;;0.10;0.10;;;;;;;;;;5381912;26;20007;-82
2024/04/11 14:27:31;;;;;;;0.10;0.10;;;;;;;;;;5381887;26;20012;-83
2024/04/11 14:30:00;;;;;;;0.22;0.22;;;;;;;;;;5380342;26;20345;-82
2024/04/11 14:33:09;;;;;;;0.10;0.10;;;;;;;;;;5379516;26;20021;-84
2024/04/11 14:38:09;;;;;;;0.10;0.10;;;;;;;;;;5379791;26;20041;-83
2024/04/11 14:40:37;;;;;;;0.10;0.10;;;;;;;;;;5379352;26;20016;-83
2024/04/11 14:43:10;;;;;;;0.10;0.10;;;;;;;;;;5381278;26;20000;-83
2024/04/11 14:45:41;;;;;;;0.10;0.10;;;;;;;;;;5379318;26;20024;-83
2024/04/11 14:48:33;;;;;;;0.10;0.10;;;;;;;;;;5380578;26;19998;-83
2024/04/11 14:50:58;;;;;;;0.10;0.10;;;;;;;;;;5381326;26;19996;-83
2024/04/11 14:53:26;;;;;;;0.10;0.10;;;;;;;;;;5379595;26;20020;-84
2024/04/11 14:55:56;;;;;;;0.10;0.10;;;;;;;;;;5379601;26;20021;-86
2024/04/11 14:58:30;;;;;;;0.20;0.20;;;;;;;;;;5380930;26;20020;-85
2024/04/11 15:01:14;;;;;;;0.10;0.10;;;;;;;;;;5380923;26;20007;-85
2024/04/11 15:03:44;;;;;;;0.10;0.10;;;;;;;;;;5379762;26;20021;-85
2024/04/11 15:06:15;;;;;;;0.10;0.10;;;;;;;;;;5379770;26;20016;-85
2024/04/11 15:08:42;;;;;;;0.10;0.10;;;;;;;;;;5379038;26;20028;-85